sensor_id;sensor_type;location;lat;lon;timestamp;P1;durP1;ratioP1;P2;durP2;ratioP2
77948;SDS011;67146;51.236;-0.336;2023-07-29T00:02:08;3.08;;;0.45;;
77948;SDS011;67146;51.236;-0.336;2023-07-29T00:04:33;2.50;;;0.40;;
77948;SDS011;67146;51.236;-0.336;2023-07-29T00:06:58;3.73;;;0.60;;
77948;SDS011;67146;51.236;-0.336;2023-07-29T00:09:24;4.93;;;1.63;;
77948;SDS011;67146;51.236;-0.336;2023-07-29T00:11:49;3.23;;;0.50;;
77948;SDS011;67146;51.236;-0.336;2023-07-29T00:14:14;2.27;;;0.33;;
77948;SDS011;67146;51.236;-0.336;2023-07-29T00:16:40;3.27;;;0.73;;
77948;SDS011;67146;51.236;-0.336;2023-07-29T00:19:05;4.22;;;0.90;;
77948;SDS011;67146;51.236;-0.336;2023-07-29T00:21:31;3.53;;;0.73;;
77948;SDS011;67146;51.236;-0.336;2023-07-29T00:23:56;3.90;;;0.77;;
77948;SDS011;67146;51.236;-0.336;2023-07-29T00:26:26;5.22;;;0.90;;
77948;SDS011;67146;51.236;-0.336;2023-07-29T00:28:53;5.53;;;1.30;;
77948;SDS011;67146;51.236;-0.336;2023-07-29T00:31:19;4.07;;;0.95;;
77948;SDS011;67146;51.236;-0.336;2023-07-29T00:33:44;4.10;;;1.10;;
77948;SDS011;67146;51.236;-0.336;2023-07-29T00:36:10;5.20;;;1.10;;
77948;SDS011;67146;51.236;-0.336;2023-07-29T00:38:35;3.87;;;0.93;;
77948;SDS011;67146;51.236;-0.336;2023-07-29T00:41:02;5.13;;;1.37;;
77948;SDS011;67146;51.236;-0.336;2023-07-29T00:43:28;3.60;;;0.93;;
77948;SDS011;67146;51.236;-0.336;2023-07-29T00:45:53;5.50;;;1.43;;
77948;SDS011;67146;51.236;-0.336;2023-07-29T00:48:18;5.43;;;1.10;;
77948;SDS011;67146;51.236;-0.336;2023-07-29T00:50:44;5.90;;;1.90;;
77948;SDS011;67146;51.236;-0.336;2023-07-29T00:53:09;3.77;;;0.90;;
77948;SDS011;67146;51.236;-0.336;2023-07-29T00:55:35;5.25;;;1.20;;
77948;SDS011;67146;51.236;-0.336;2023-07-29T00:58:00;5.70;;;1.90;;
77948;SDS011;67146;51.236;-0.336;2023-07-29T01:00:25;5.38;;;1.65;;
77948;SDS011;67146;51.236;-0.336;2023-07-29T01:02:52;4.63;;;1.13;;
77948;SDS011;67146;51.236;-0.336;2023-07-29T01:07:53;3.73;;;0.90;;
77948;SDS011;67146;51.236;-0.336;2023-07-29T01:10:46;5.78;;;1.52;;
77948;SDS011;67146;51.236;-0.336;2023-07-29T01:16:00;5.88;;;1.63;;
77948;SDS011;67146;51.236;-0.336;2023-07-29T01:18:29;8.73;;;1.45;;
77948;SDS011;67146;51.236;-0.336;2023-07-29T01:21:00;4.97;;;1.58;;
77948;SDS011;67146;51.236;-0.336;2023-07-29T01:23:31;5.10;;;1.60;;
77948;SDS011;67146;51.236;-0.336;2023-07-29T01:25:57;6.90;;;1.73;;
77948;SDS011;67146;51.236;-0.336;2023-07-29T01:28:22;4.70;;;1.67;;
77948;SDS011;67146;51.236;-0.336;2023-07-29T01:30:49;4.82;;;1.58;;
77948;SDS011;67146;51.236;-0.336;2023-07-29T01:33:25;5.35;;;1.67;;
77948;SDS011;67146;51.236;-0.336;2023-07-29T01:35:55;5.97;;;2.00;;
77948;SDS011;67146;51.236;-0.336;2023-07-29T01:38:24;4.38;;;1.35;;
77948;SDS011;67146;51.236;-0.336;2023-07-29T01:40:56;6.50;;;1.50;;
77948;SDS011;67146;51.236;-0.336;2023-07-29T01:43:21;5.90;;;2.25;;
77948;SDS011;67146;51.236;-0.336;2023-07-29T01:45:50;5.90;;;1.33;;
77948;SDS011;67146;51.236;-0.336;2023-07-29T01:48:16;6.55;;;2.50;;
77948;SDS011;67146;51.236;-0.336;2023-07-29T01:50:41;5.90;;;1.63;;
77948;SDS011;67146;51.236;-0.336;2023-07-29T01:53:06;5.83;;;1.93;;
77948;SDS011;67146;51.236;-0.336;2023-07-29T01:55:31;6.90;;;2.07;;
77948;SDS011;67146;51.236;-0.336;2023-07-29T01:57:57;7.85;;;2.10;;
77948;SDS011;67146;51.236;-0.336;2023-07-29T02:00:23;5.10;;;1.92;;
77948;SDS011;67146;51.236;-0.336;2023-07-29T02:02:48;6.37;;;1.53;;
77948;SDS011;67146;51.236;-0.336;2023-07-29T02:05:14;8.20;;;2.00;;
77948;SDS011;67146;51.236;-0.336;2023-07-29T02:07:39;5.88;;;1.83;;
77948;SDS011;67146;51.236;-0.336;2023-07-29T02:10:04;5.17;;;1.40;;
77948;SDS011;67146;51.236;-0.336;2023-07-29T02:12:30;7.43;;;1.85;;
77948;SDS011;67146;51.236;-0.336;2023-07-29T02:14:55;6.63;;;1.80;;
77948;SDS011;67146;51.236;-0.336;2023-07-29T02:17:21;5.70;;;1.48;;
77948;SDS011;67146;51.236;-0.336;2023-07-29T02:19:46;5.37;;;1.63;;
77948;SDS011;67146;51.236;-0.336;2023-07-29T02:22:15;9.18;;;1.63;;
77948;SDS011;67146;51.236;-0.336;2023-07-29T02:24:41;5.18;;;0.95;;
77948;SDS011;67146;51.236;-0.336;2023-07-29T02:27:07;4.88;;;1.55;;
77948;SDS011;67146;51.236;-0.336;2023-07-29T02:29:32;6.47;;;1.70;;
77948;SDS011;67146;51.236;-0.336;2023-07-29T02:31:58;6.45;;;1.25;;
77948;SDS011;67146;51.236;-0.336;2023-07-29T02:34:23;9.57;;;2.38;;
77948;SDS011;67146;51.236;-0.336;2023-07-29T02:36:48;7.23;;;1.43;;
77948;SDS011;67146;51.236;-0.336;2023-07-29T02:39:14;6.93;;;1.40;;
77948;SDS011;67146;51.236;-0.336;2023-07-29T02:41:39;7.43;;;1.93;;
77948;SDS011;67146;51.236;-0.336;2023-07-29T02:44:05;6.40;;;1.35;;
77948;SDS011;67146;51.236;-0.336;2023-07-29T02:46:30;8.02;;;1.45;;
77948;SDS011;67146;51.236;-0.336;2023-07-29T02:48:55;5.40;;;1.55;;
77948;SDS011;67146;51.236;-0.336;2023-07-29T02:51:21;7.50;;;1.52;;
77948;SDS011;67146;51.236;-0.336;2023-07-29T02:53:46;6.27;;;1.33;;
77948;SDS011;67146;51.236;-0.336;2023-07-29T02:56:11;5.80;;;1.23;;
77948;SDS011;67146;51.236;-0.336;2023-07-29T02:58:37;6.43;;;1.40;;
77948;SDS011;67146;51.236;-0.336;2023-07-29T03:01:05;6.32;;;1.23;;
77948;SDS011;67146;51.236;-0.336;2023-07-29T03:03:31;5.80;;;1.33;;
77948;SDS011;67146;51.236;-0.336;2023-07-29T03:06:01;6.63;;;1.35;;
77948;SDS011;67146;51.236;-0.336;2023-07-29T03:08:28;3.92;;;0.90;;
77948;SDS011;67146;51.236;-0.336;2023-07-29T03:10:54;6.67;;;1.40;;
77948;SDS011;67146;51.236;-0.336;2023-07-29T03:13:19;6.18;;;1.73;;
77948;SDS011;67146;51.236;-0.336;2023-07-29T03:15:45;7.90;;;1.92;;
77948;SDS011;67146;51.236;-0.336;2023-07-29T03:18:10;5.90;;;1.33;;
77948;SDS011;67146;51.236;-0.336;2023-07-29T03:20:36;6.00;;;1.33;;
77948;SDS011;67146;51.236;-0.336;2023-07-29T03:23:01;6.43;;;1.47;;
77948;SDS011;67146;51.236;-0.336;2023-07-29T03:25:27;7.22;;;1.75;;
77948;SDS011;67146;51.236;-0.336;2023-07-29T03:27:53;6.13;;;1.23;;
77948;SDS011;67146;51.236;-0.336;2023-07-29T03:30:19;6.47;;;1.02;;
77948;SDS011;67146;51.236;-0.336;2023-07-29T03:32:46;5.97;;;1.00;;
77948;SDS011;67146;51.236;-0.336;2023-07-29T03:35:11;8.55;;;1.58;;
77948;SDS011;67146;51.236;-0.336;2023-07-29T03:37:36;6.37;;;1.33;;
77948;SDS011;67146;51.236;-0.336;2023-07-29T03:40:02;9.20;;;1.52;;
77948;SDS011;67146;51.236;-0.336;2023-07-29T03:42:28;10.52;;;1.90;;
77948;SDS011;67146;51.236;-0.336;2023-07-29T03:44:53;6.43;;;1.02;;
77948;SDS011;67146;51.236;-0.336;2023-07-29T03:47:18;12.03;;;1.10;;
77948;SDS011;67146;51.236;-0.336;2023-07-29T03:49:44;6.33;;;0.90;;
77948;SDS011;67146;51.236;-0.336;2023-07-29T03:52:09;8.00;;;1.48;;
77948;SDS011;67146;51.236;-0.336;2023-07-29T03:54:35;6.55;;;1.52;;
77948;SDS011;67146;51.236;-0.336;2023-07-29T03:57:00;9.55;;;1.27;;
77948;SDS011;67146;51.236;-0.336;2023-07-29T03:59:26;9.70;;;1.50;;
77948;SDS011;67146;51.236;-0.336;2023-07-29T04:01:51;8.27;;;1.47;;
77948;SDS011;67146;51.236;-0.336;2023-07-29T04:04:16;8.10;;;1.37;;
77948;SDS011;67146;51.236;-0.336;2023-07-29T04:06:42;8.87;;;1.43;;
77948;SDS011;67146;51.236;-0.336;2023-07-29T04:09:07;7.30;;;1.50;;
77948;SDS011;67146;51.236;-0.336;2023-07-29T04:11:33;8.55;;;1.67;;
77948;SDS011;67146;51.236;-0.336;2023-07-29T04:13:58;6.15;;;1.40;;
77948;SDS011;67146;51.236;-0.336;2023-07-29T04:16:24;10.45;;;2.00;;
77948;SDS011;67146;51.236;-0.336;2023-07-29T04:18:49;10.70;;;1.27;;
77948;SDS011;67146;51.236;-0.336;2023-07-29T04:21:14;8.60;;;1.70;;
77948;SDS011;67146;51.236;-0.336;2023-07-29T04:23:40;10.63;;;1.90;;
77948;SDS011;67146;51.236;-0.336;2023-07-29T04:26:05;8.98;;;1.73;;
77948;SDS011;67146;51.236;-0.336;2023-07-29T04:28:30;6.80;;;1.40;;
77948;SDS011;67146;51.236;-0.336;2023-07-29T04:30:56;7.00;;;1.50;;
77948;SDS011;67146;51.236;-0.336;2023-07-29T04:33:21;9.23;;;2.30;;
77948;SDS011;67146;51.236;-0.336;2023-07-29T04:35:46;7.93;;;1.73;;
77948;SDS011;67146;51.236;-0.336;2023-07-29T04:38:12;10.10;;;1.92;;
77948;SDS011;67146;51.236;-0.336;2023-07-29T04:40:37;6.27;;;1.63;;
77948;SDS011;67146;51.236;-0.336;2023-07-29T04:43:02;8.50;;;2.07;;
77948;SDS011;67146;51.236;-0.336;2023-07-29T04:45:28;5.63;;;1.63;;
77948;SDS011;67146;51.236;-0.336;2023-07-29T04:47:54;8.13;;;2.70;;
77948;SDS011;67146;51.236;-0.336;2023-07-29T04:50:20;9.18;;;2.38;;
77948;SDS011;67146;51.236;-0.336;2023-07-29T04:52:45;7.85;;;1.98;;
77948;SDS011;67146;51.236;-0.336;2023-07-29T04:55:11;7.03;;;2.20;;
77948;SDS011;67146;51.236;-0.336;2023-07-29T04:57:36;7.20;;;2.00;;
77948;SDS011;67146;51.236;-0.336;2023-07-29T05:00:02;9.63;;;2.27;;
77948;SDS011;67146;51.236;-0.336;2023-07-29T05:02:28;7.93;;;1.67;;
77948;SDS011;67146;51.236;-0.336;2023-07-29T05:04:53;10.82;;;2.60;;
77948;SDS011;67146;51.236;-0.336;2023-07-29T05:07:18;7.88;;;2.45;;
77948;SDS011;67146;51.236;-0.336;2023-07-29T05:09:44;8.60;;;1.87;;
77948;SDS011;67146;51.236;-0.336;2023-07-29T05:12:09;6.80;;;2.10;;
77948;SDS011;67146;51.236;-0.336;2023-07-29T05:14:34;6.07;;;1.57;;
77948;SDS011;67146;51.236;-0.336;2023-07-29T05:17:00;7.63;;;1.97;;
77948;SDS011;67146;51.236;-0.336;2023-07-29T05:19:26;11.13;;;2.33;;
77948;SDS011;67146;51.236;-0.336;2023-07-29T05:21:51;9.35;;;1.52;;
77948;SDS011;67146;51.236;-0.336;2023-07-29T05:24:17;7.53;;;2.03;;
77948;SDS011;67146;51.236;-0.336;2023-07-29T05:26:42;7.23;;;1.80;;
77948;SDS011;67146;51.236;-0.336;2023-07-29T05:29:07;5.77;;;1.30;;
77948;SDS011;67146;51.236;-0.336;2023-07-29T05:31:33;7.70;;;1.65;;
77948;SDS011;67146;51.236;-0.336;2023-07-29T05:33:58;7.10;;;1.50;;
77948;SDS011;67146;51.236;-0.336;2023-07-29T05:36:24;6.45;;;1.42;;
77948;SDS011;67146;51.236;-0.336;2023-07-29T05:38:49;7.57;;;1.80;;
77948;SDS011;67146;51.236;-0.336;2023-07-29T05:41:15;8.52;;;1.42;;
77948;SDS011;67146;51.236;-0.336;2023-07-29T05:43:40;7.78;;;1.83;;
77948;SDS011;67146;51.236;-0.336;2023-07-29T05:46:08;7.85;;;1.48;;
77948;SDS011;67146;51.236;-0.336;2023-07-29T05:48:33;5.07;;;1.45;;
77948;SDS011;67146;51.236;-0.336;2023-07-29T05:50:59;5.85;;;1.42;;
77948;SDS011;67146;51.236;-0.336;2023-07-29T05:53:24;5.07;;;1.55;;
77948;SDS011;67146;51.236;-0.336;2023-07-29T05:55:49;6.53;;;1.40;;
77948;SDS011;67146;51.236;-0.336;2023-07-29T05:58:15;5.68;;;1.38;;
77948;SDS011;67146;51.236;-0.336;2023-07-29T06:00:40;6.07;;;1.00;;
77948;SDS011;67146;51.236;-0.336;2023-07-29T06:03:06;5.38;;;1.30;;
77948;SDS011;67146;51.236;-0.336;2023-07-29T06:05:31;5.93;;;1.50;;
77948;SDS011;67146;51.236;-0.336;2023-07-29T06:07:57;5.22;;;1.33;;
77948;SDS011;67146;51.236;-0.336;2023-07-29T06:10:22;4.18;;;0.93;;
77948;SDS011;67146;51.236;-0.336;2023-07-29T06:12:48;6.68;;;1.15;;
77948;SDS011;67146;51.236;-0.336;2023-07-29T06:15:14;5.90;;;0.82;;
77948;SDS011;67146;51.236;-0.336;2023-07-29T06:17:39;4.78;;;0.75;;
77948;SDS011;67146;51.236;-0.336;2023-07-29T06:20:06;4.13;;;0.75;;
77948;SDS011;67146;51.236;-0.336;2023-07-29T06:22:31;4.32;;;0.98;;
77948;SDS011;67146;51.236;-0.336;2023-07-29T06:24:57;4.20;;;1.05;;
77948;SDS011;67146;51.236;-0.336;2023-07-29T06:27:24;4.43;;;0.85;;
77948;SDS011;67146;51.236;-0.336;2023-07-29T06:29:50;5.72;;;1.15;;
77948;SDS011;67146;51.236;-0.336;2023-07-29T06:32:15;3.55;;;0.90;;
77948;SDS011;67146;51.236;-0.336;2023-07-29T06:34:41;4.10;;;0.80;;
77948;SDS011;67146;51.236;-0.336;2023-07-29T06:37:06;5.17;;;1.13;;
77948;SDS011;67146;51.236;-0.336;2023-07-29T06:39:32;4.40;;;0.75;;
77948;SDS011;67146;51.236;-0.336;2023-07-29T06:41:57;5.90;;;0.70;;
77948;SDS011;67146;51.236;-0.336;2023-07-29T06:44:22;2.72;;;0.60;;
77948;SDS011;67146;51.236;-0.336;2023-07-29T06:46:48;5.03;;;0.80;;
77948;SDS011;67146;51.236;-0.336;2023-07-29T06:49:13;4.63;;;0.93;;
77948;SDS011;67146;51.236;-0.336;2023-07-29T06:51:38;3.40;;;0.40;;
77948;SDS011;67146;51.236;-0.336;2023-07-29T06:54:04;3.70;;;0.83;;
77948;SDS011;67146;51.236;-0.336;2023-07-29T06:56:29;5.00;;;1.20;;
77948;SDS011;67146;51.236;-0.336;2023-07-29T06:58:54;4.77;;;0.93;;
77948;SDS011;67146;51.236;-0.336;2023-07-29T07:01:20;4.07;;;0.57;;
77948;SDS011;67146;51.236;-0.336;2023-07-29T07:03:45;4.83;;;0.87;;
77948;SDS011;67146;51.236;-0.336;2023-07-29T07:06:10;4.60;;;0.88;;
77948;SDS011;67146;51.236;-0.336;2023-07-29T07:08:36;3.70;;;0.70;;
77948;SDS011;67146;51.236;-0.336;2023-07-29T07:11:01;5.23;;;1.20;;
77948;SDS011;67146;51.236;-0.336;2023-07-29T07:13:26;4.50;;;0.90;;
77948;SDS011;67146;51.236;-0.336;2023-07-29T07:15:55;6.90;;;0.70;;
77948;SDS011;67146;51.236;-0.336;2023-07-29T07:18:21;4.82;;;0.60;;
77948;SDS011;67146;51.236;-0.336;2023-07-29T07:20:49;4.40;;;1.13;;
77948;SDS011;67146;51.236;-0.336;2023-07-29T07:23:15;3.90;;;0.70;;
77948;SDS011;67146;51.236;-0.336;2023-07-29T07:25:41;4.65;;;1.00;;
77948;SDS011;67146;51.236;-0.336;2023-07-29T07:28:07;5.57;;;1.35;;
77948;SDS011;67146;51.236;-0.336;2023-07-29T07:30:33;6.60;;;1.13;;
77948;SDS011;67146;51.236;-0.336;2023-07-29T07:32:58;6.20;;;1.07;;
77948;SDS011;67146;51.236;-0.336;2023-07-29T07:35:23;4.50;;;1.10;;
77948;SDS011;67146;51.236;-0.336;2023-07-29T07:37:49;4.90;;;1.07;;
77948;SDS011;67146;51.236;-0.336;2023-07-29T07:40:14;3.80;;;1.37;;
77948;SDS011;67146;51.236;-0.336;2023-07-29T07:42:39;4.03;;;1.00;;
77948;SDS011;67146;51.236;-0.336;2023-07-29T07:45:05;4.03;;;0.80;;
77948;SDS011;67146;51.236;-0.336;2023-07-29T07:47:30;4.10;;;0.57;;
77948;SDS011;67146;51.236;-0.336;2023-07-29T07:49:56;6.03;;;1.10;;
77948;SDS011;67146;51.236;-0.336;2023-07-29T07:52:21;7.28;;;0.95;;
77948;SDS011;67146;51.236;-0.336;2023-07-29T07:54:51;4.20;;;1.15;;
77948;SDS011;67146;51.236;-0.336;2023-07-29T07:57:17;5.35;;;1.15;;
77948;SDS011;67146;51.236;-0.336;2023-07-29T07:59:42;4.43;;;1.07;;
77948;SDS011;67146;51.236;-0.336;2023-07-29T08:02:08;4.83;;;1.20;;
77948;SDS011;67146;51.236;-0.336;2023-07-29T08:04:33;4.00;;;1.10;;
77948;SDS011;67146;51.236;-0.336;2023-07-29T08:06:58;7.77;;;1.17;;
77948;SDS011;67146;51.236;-0.336;2023-07-29T08:09:23;3.93;;;0.73;;
77948;SDS011;67146;51.236;-0.336;2023-07-29T08:11:50;4.60;;;0.57;;
77948;SDS011;67146;51.236;-0.336;2023-07-29T08:14:15;7.07;;;0.90;;
77948;SDS011;67146;51.236;-0.336;2023-07-29T08:16:41;3.97;;;0.47;;
77948;SDS011;67146;51.236;-0.336;2023-07-29T08:19:06;4.50;;;0.77;;
77948;SDS011;67146;51.236;-0.336;2023-07-29T08:21:34;2.80;;;0.43;;
77948;SDS011;67146;51.236;-0.336;2023-07-29T08:23:59;3.53;;;0.90;;
77948;SDS011;67146;51.236;-0.336;2023-07-29T08:26:25;3.40;;;1.47;;
77948;SDS011;67146;51.236;-0.336;2023-07-29T08:28:50;5.22;;;0.93;;
77948;SDS011;67146;51.236;-0.336;2023-07-29T08:31:15;3.97;;;0.87;;
77948;SDS011;67146;51.236;-0.336;2023-07-29T08:33:41;3.20;;;0.80;;
77948;SDS011;67146;51.236;-0.336;2023-07-29T08:36:06;3.40;;;0.83;;
77948;SDS011;67146;51.236;-0.336;2023-07-29T08:38:31;3.28;;;0.70;;
77948;SDS011;67146;51.236;-0.336;2023-07-29T08:40:58;5.03;;;0.90;;
77948;SDS011;67146;51.236;-0.336;2023-07-29T08:43:30;3.42;;;0.80;;
77948;SDS011;67146;51.236;-0.336;2023-07-29T08:45:58;3.25;;;0.90;;
77948;SDS011;67146;51.236;-0.336;2023-07-29T08:48:29;3.60;;;0.95;;
77948;SDS011;67146;51.236;-0.336;2023-07-29T08:50:56;4.35;;;1.20;;
77948;SDS011;67146;51.236;-0.336;2023-07-29T08:53:23;5.95;;;1.23;;
77948;SDS011;67146;51.236;-0.336;2023-07-29T08:55:49;3.72;;;0.80;;
77948;SDS011;67146;51.236;-0.336;2023-07-29T08:58:15;5.03;;;1.20;;
77948;SDS011;67146;51.236;-0.336;2023-07-29T09:00:40;3.08;;;0.77;;
77948;SDS011;67146;51.236;-0.336;2023-07-29T09:03:06;4.57;;;1.30;;
77948;SDS011;67146;51.236;-0.336;2023-07-29T09:05:33;4.30;;;0.90;;
77948;SDS011;67146;51.236;-0.336;2023-07-29T09:07:59;3.38;;;1.25;;
77948;SDS011;67146;51.236;-0.336;2023-07-29T09:10:25;5.45;;;1.50;;
77948;SDS011;67146;51.236;-0.336;2023-07-29T09:12:51;5.07;;;1.85;;
77948;SDS011;67146;51.236;-0.336;2023-07-29T09:15:26;6.07;;;1.20;;
77948;SDS011;67146;51.236;-0.336;2023-07-29T09:17:53;5.13;;;1.27;;
77948;SDS011;67146;51.236;-0.336;2023-07-29T09:20:23;3.95;;;0.95;;
77948;SDS011;67146;51.236;-0.336;2023-07-29T09:22:49;3.50;;;1.42;;
77948;SDS011;67146;51.236;-0.336;2023-07-29T09:25:14;6.57;;;0.90;;
77948;SDS011;67146;51.236;-0.336;2023-07-29T09:27:41;3.58;;;1.30;;
77948;SDS011;67146;51.236;-0.336;2023-07-29T09:30:06;3.90;;;0.90;;
77948;SDS011;67146;51.236;-0.336;2023-07-29T09:32:41;4.38;;;1.08;;
77948;SDS011;67146;51.236;-0.336;2023-07-29T09:35:09;4.82;;;1.10;;
77948;SDS011;67146;51.236;-0.336;2023-07-29T09:37:36;5.80;;;0.98;;
77948;SDS011;67146;51.236;-0.336;2023-07-29T09:40:03;3.92;;;1.48;;
77948;SDS011;67146;51.236;-0.336;2023-07-29T09:42:29;3.70;;;1.13;;
77948;SDS011;67146;51.236;-0.336;2023-07-29T09:44:54;3.70;;;0.98;;
77948;SDS011;67146;51.236;-0.336;2023-07-29T09:47:20;6.22;;;1.23;;
77948;SDS011;67146;51.236;-0.336;2023-07-29T09:49:46;4.93;;;1.42;;
77948;SDS011;67146;51.236;-0.336;2023-07-29T09:52:13;4.40;;;1.02;;
77948;SDS011;67146;51.236;-0.336;2023-07-29T09:54:40;5.53;;;1.70;;
77948;SDS011;67146;51.236;-0.336;2023-07-29T09:57:07;4.15;;;1.23;;
77948;SDS011;67146;51.236;-0.336;2023-07-29T09:59:35;3.90;;;1.23;;
77948;SDS011;67146;51.236;-0.336;2023-07-29T10:02:01;5.13;;;1.27;;
77948;SDS011;67146;51.236;-0.336;2023-07-29T10:04:26;7.20;;;1.63;;
77948;SDS011;67146;51.236;-0.336;2023-07-29T10:06:52;3.70;;;1.58;;
77948;SDS011;67146;51.236;-0.336;2023-07-29T10:09:17;4.82;;;1.05;;
77948;SDS011;67146;51.236;-0.336;2023-07-29T10:11:46;5.78;;;0.88;;
77948;SDS011;67146;51.236;-0.336;2023-07-29T10:14:12;5.25;;;1.17;;
77948;SDS011;67146;51.236;-0.336;2023-07-29T10:16:39;7.18;;;1.15;;
77948;SDS011;67146;51.236;-0.336;2023-07-29T10:19:06;6.63;;;1.63;;
77948;SDS011;67146;51.236;-0.336;2023-07-29T10:21:32;4.65;;;0.85;;
77948;SDS011;67146;51.236;-0.336;2023-07-29T10:23:59;4.55;;;1.35;;
77948;SDS011;67146;51.236;-0.336;2023-07-29T10:26:26;4.65;;;1.23;;
77948;SDS011;67146;51.236;-0.336;2023-07-29T10:28:53;5.22;;;1.05;;
77948;SDS011;67146;51.236;-0.336;2023-07-29T10:31:20;3.75;;;0.95;;
77948;SDS011;67146;51.236;-0.336;2023-07-29T10:33:47;4.70;;;1.17;;
77948;SDS011;67146;51.236;-0.336;2023-07-29T10:36:13;5.25;;;0.75;;
77948;SDS011;67146;51.236;-0.336;2023-07-29T10:38:39;5.88;;;1.10;;
77948;SDS011;67146;51.236;-0.336;2023-07-29T10:41:05;5.25;;;1.30;;
77948;SDS011;67146;51.236;-0.336;2023-07-29T10:43:35;7.40;;;1.38;;
77948;SDS011;67146;51.236;-0.336;2023-07-29T10:46:19;4.03;;;1.02;;
77948;SDS011;67146;51.236;-0.336;2023-07-29T10:53:57;4.68;;;1.23;;
77948;SDS011;67146;51.236;-0.336;2023-07-29T10:56:35;4.88;;;1.13;;
77948;SDS011;67146;51.236;-0.336;2023-07-29T11:01:43;5.82;;;1.40;;
77948;SDS011;67146;51.236;-0.336;2023-07-29T11:07:18;4.13;;;0.98;;
77948;SDS011;67146;51.236;-0.336;2023-07-29T11:17:35;6.38;;;0.80;;
77948;SDS011;67146;51.236;-0.336;2023-07-29T11:20:17;4.60;;;0.93;;
77948;SDS011;67146;51.236;-0.336;2023-07-29T11:22:43;5.00;;;1.02;;
77948;SDS011;67146;51.236;-0.336;2023-07-29T11:25:10;7.00;;;1.27;;
77948;SDS011;67146;51.236;-0.336;2023-07-29T11:27:37;4.85;;;1.10;;
77948;SDS011;67146;51.236;-0.336;2023-07-29T11:30:04;5.55;;;0.88;;
77948;SDS011;67146;51.236;-0.336;2023-07-29T11:32:30;5.28;;;1.20;;
77948;SDS011;67146;51.236;-0.336;2023-07-29T11:34:57;4.97;;;1.10;;
77948;SDS011;67146;51.236;-0.336;2023-07-29T11:37:26;6.13;;;1.00;;
77948;SDS011;67146;51.236;-0.336;2023-07-29T11:39:51;4.67;;;0.73;;
77948;SDS011;67146;51.236;-0.336;2023-07-29T11:42:17;4.87;;;0.67;;
77948;SDS011;67146;51.236;-0.336;2023-07-29T11:44:42;8.50;;;1.73;;
77948;SDS011;67146;51.236;-0.336;2023-07-29T11:47:08;6.03;;;1.05;;
77948;SDS011;67146;51.236;-0.336;2023-07-29T11:49:40;4.85;;;1.02;;
77948;SDS011;67146;51.236;-0.336;2023-07-29T11:52:09;5.68;;;1.80;;
77948;SDS011;67146;51.236;-0.336;2023-07-29T11:54:36;5.32;;;0.90;;
77948;SDS011;67146;51.236;-0.336;2023-07-29T11:57:03;6.15;;;0.77;;
77948;SDS011;67146;51.236;-0.336;2023-07-29T12:01:55;5.30;;;0.87;;
77948;SDS011;67146;51.236;-0.336;2023-07-29T12:04:20;5.03;;;0.80;;
77948;SDS011;67146;51.236;-0.336;2023-07-29T12:06:46;4.93;;;0.87;;
77948;SDS011;67146;51.236;-0.336;2023-07-29T12:09:11;6.15;;;1.63;;
77948;SDS011;67146;51.236;-0.336;2023-07-29T12:11:38;4.85;;;0.90;;
77948;SDS011;67146;51.236;-0.336;2023-07-29T12:14:06;4.47;;;0.90;;
77948;SDS011;67146;51.236;-0.336;2023-07-29T12:16:39;5.07;;;0.93;;
77948;SDS011;67146;51.236;-0.336;2023-07-29T12:19:05;3.97;;;0.80;;
77948;SDS011;67146;51.236;-0.336;2023-07-29T12:21:30;5.90;;;0.83;;
77948;SDS011;67146;51.236;-0.336;2023-07-29T12:23:56;4.97;;;1.37;;
77948;SDS011;67146;51.236;-0.336;2023-07-29T12:26:21;5.63;;;0.73;;
77948;SDS011;67146;51.236;-0.336;2023-07-29T12:28:52;5.10;;;1.15;;
77948;SDS011;67146;51.236;-0.336;2023-07-29T12:31:18;4.40;;;1.17;;
77948;SDS011;67146;51.236;-0.336;2023-07-29T12:33:43;5.23;;;0.80;;
77948;SDS011;67146;51.236;-0.336;2023-07-29T12:36:11;8.45;;;0.90;;
77948;SDS011;67146;51.236;-0.336;2023-07-29T12:38:36;5.32;;;0.70;;
77948;SDS011;67146;51.236;-0.336;2023-07-29T12:41:01;5.37;;;1.03;;
77948;SDS011;67146;51.236;-0.336;2023-07-29T12:43:27;6.60;;;1.33;;
77948;SDS011;67146;51.236;-0.336;2023-07-29T12:45:52;4.60;;;1.15;;
77948;SDS011;67146;51.236;-0.336;2023-07-29T12:48:18;4.63;;;0.93;;
77948;SDS011;67146;51.236;-0.336;2023-07-29T12:50:43;6.03;;;1.13;;
77948;SDS011;67146;51.236;-0.336;2023-07-29T12:53:09;5.23;;;1.03;;
77948;SDS011;67146;51.236;-0.336;2023-07-29T12:55:37;2.80;;;0.52;;
77948;SDS011;67146;51.236;-0.336;2023-07-29T12:58:03;4.47;;;0.95;;
77948;SDS011;67146;51.236;-0.336;2023-07-29T13:00:28;2.97;;;0.50;;
77948;SDS011;67146;51.236;-0.336;2023-07-29T13:02:54;7.18;;;0.90;;
77948;SDS011;67146;51.236;-0.336;2023-07-29T13:05:19;5.10;;;0.60;;
77948;SDS011;67146;51.236;-0.336;2023-07-29T13:07:45;4.53;;;0.82;;
77948;SDS011;67146;51.236;-0.336;2023-07-29T13:10:10;4.95;;;0.70;;
77948;SDS011;67146;51.236;-0.336;2023-07-29T13:12:35;6.60;;;1.55;;
77948;SDS011;67146;51.236;-0.336;2023-07-29T13:15:01;7.10;;;1.00;;
77948;SDS011;67146;51.236;-0.336;2023-07-29T13:17:26;7.35;;;1.20;;
77948;SDS011;67146;51.236;-0.336;2023-07-29T13:19:52;4.18;;;1.13;;
77948;SDS011;67146;51.236;-0.336;2023-07-29T13:22:17;6.23;;;0.80;;
77948;SDS011;67146;51.236;-0.336;2023-07-29T13:24:43;6.88;;;1.08;;
77948;SDS011;67146;51.236;-0.336;2023-07-29T13:27:08;5.77;;;1.30;;
77948;SDS011;67146;51.236;-0.336;2023-07-29T13:29:33;4.47;;;0.80;;
77948;SDS011;67146;51.236;-0.336;2023-07-29T13:31:59;6.20;;;1.10;;
77948;SDS011;67146;51.236;-0.336;2023-07-29T13:34:24;5.20;;;1.17;;
77948;SDS011;67146;51.236;-0.336;2023-07-29T13:36:49;5.97;;;0.73;;
77948;SDS011;67146;51.236;-0.336;2023-07-29T13:39:15;5.77;;;0.90;;
77948;SDS011;67146;51.236;-0.336;2023-07-29T13:41:40;5.20;;;0.93;;
77948;SDS011;67146;51.236;-0.336;2023-07-29T13:44:06;3.33;;;1.25;;
77948;SDS011;67146;51.236;-0.336;2023-07-29T13:46:31;6.35;;;0.80;;
77948;SDS011;67146;51.236;-0.336;2023-07-29T13:48:57;4.53;;;0.90;;
77948;SDS011;67146;51.236;-0.336;2023-07-29T13:51:22;5.00;;;1.13;;
77948;SDS011;67146;51.236;-0.336;2023-07-29T13:53:47;3.75;;;0.82;;
77948;SDS011;67146;51.236;-0.336;2023-07-29T13:56:13;3.33;;;0.70;;
77948;SDS011;67146;51.236;-0.336;2023-07-29T13:58:38;5.17;;;0.90;;
77948;SDS011;67146;51.236;-0.336;2023-07-29T14:01:04;5.60;;;0.75;;
77948;SDS011;67146;51.236;-0.336;2023-07-29T14:03:30;5.37;;;0.70;;
77948;SDS011;67146;51.236;-0.336;2023-07-29T14:05:55;3.60;;;0.87;;
77948;SDS011;67146;51.236;-0.336;2023-07-29T14:08:20;4.03;;;0.80;;
77948;SDS011;67146;51.236;-0.336;2023-07-29T14:10:48;3.28;;;0.73;;
77948;SDS011;67146;51.236;-0.336;2023-07-29T14:13:14;2.97;;;0.63;;
77948;SDS011;67146;51.236;-0.336;2023-07-29T14:15:39;4.50;;;0.97;;
77948;SDS011;67146;51.236;-0.336;2023-07-29T14:18:04;2.70;;;0.73;;
77948;SDS011;67146;51.236;-0.336;2023-07-29T14:20:31;4.53;;;0.60;;
77948;SDS011;67146;51.236;-0.336;2023-07-29T14:22:57;6.25;;;0.80;;
77948;SDS011;67146;51.236;-0.336;2023-07-29T14:25:22;3.87;;;0.93;;
77948;SDS011;67146;51.236;-0.336;2023-07-29T14:27:47;4.97;;;0.70;;
77948;SDS011;67146;51.236;-0.336;2023-07-29T14:30:13;4.50;;;0.67;;
77948;SDS011;67146;51.236;-0.336;2023-07-29T14:32:38;3.80;;;0.60;;
77948;SDS011;67146;51.236;-0.336;2023-07-29T14:35:03;5.70;;;0.95;;
77948;SDS011;67146;51.236;-0.336;2023-07-29T14:37:32;4.53;;;0.40;;
77948;SDS011;67146;51.236;-0.336;2023-07-29T14:39:58;3.83;;;1.00;;
77948;SDS011;67146;51.236;-0.336;2023-07-29T14:42:23;4.45;;;0.70;;
77948;SDS011;67146;51.236;-0.336;2023-07-29T14:44:48;4.85;;;0.65;;
77948;SDS011;67146;51.236;-0.336;2023-07-29T14:47:14;4.93;;;0.95;;
77948;SDS011;67146;51.236;-0.336;2023-07-29T14:49:39;5.38;;;0.60;;
77948;SDS011;67146;51.236;-0.336;2023-07-29T14:52:05;4.63;;;0.70;;
77948;SDS011;67146;51.236;-0.336;2023-07-29T14:54:31;4.70;;;1.20;;